createdAt,value
2023-03-05T00:01:35.352Z,91.44
2023-03-05T00:04:05.793Z,91.61
2023-03-05T00:06:34.152Z,92.18
2023-03-05T00:09:02.832Z,91.87
2023-03-05T00:11:31.837Z,91.87
2023-03-05T00:14:03.605Z,91.99
2023-03-05T00:16:31.232Z,92.42
2023-03-05T00:19:00.672Z,92.17
2023-03-05T00:21:38.393Z,92.30
2023-03-05T00:24:12.535Z,92.24
2023-03-05T00:26:40.878Z,92.38
2023-03-05T00:29:10.859Z,92.72
2023-03-05T00:31:38.507Z,92.49
2023-03-05T00:34:11.993Z,92.63
2023-03-05T00:36:42.745Z,92.77
2023-03-05T00:39:13.007Z,92.64
2023-03-05T00:41:40.980Z,92.71
2023-03-05T00:44:09.212Z,93.02
2023-03-05T00:46:37.285Z,92.98
2023-03-05T00:49:04.906Z,93.58
2023-03-05T00:51:33.170Z,93.38
2023-03-05T00:54:00.629Z,93.48
2023-03-05T00:56:28.765Z,93.50
2023-03-05T00:58:58.712Z,93.14
2023-03-05T01:01:26.656Z,93.34
2023-03-05T01:03:56.409Z,93.17
2023-03-05T01:06:24.732Z,93.68
2023-03-05T01:08:52.269Z,93.69
2023-03-05T01:11:19.761Z,93.08
2023-03-05T01:13:47.494Z,93.16
2023-03-05T01:16:14.976Z,93.52
2023-03-05T01:18:42.488Z,93.68
2023-03-05T01:21:10.525Z,93.30
2023-03-05T01:23:38.191Z,93.63
2023-03-05T01:26:06.420Z,93.61
2023-03-05T01:28:35.126Z,93.42
2023-03-05T01:31:06.462Z,93.74
2023-03-05T01:33:33.952Z,93.58
2023-03-05T01:36:01.510Z,93.77
2023-03-05T01:38:28.976Z,93.81
2023-03-05T01:40:56.626Z,94.14
2023-03-05T01:43:28.898Z,94.20
2023-03-05T01:46:31.613Z,94.22
2023-03-05T01:49:33.723Z,94.46
2023-03-05T01:52:10.349Z,93.72
2023-03-05T01:54:49.528Z,94.33
2023-03-05T01:57:25.156Z,94.62
2023-03-05T02:00:01.160Z,94.43
2023-03-05T02:02:29.463Z,94.27
2023-03-05T02:05:10.921Z,94.70
2023-03-05T02:07:42.688Z,94.24
2023-03-05T02:10:24.392Z,94.76
2023-03-05T02:12:56.139Z,94.75
2023-03-05T02:15:23.819Z,94.59
2023-03-05T02:17:51.567Z,94.64
2023-03-05T02:20:24.100Z,94.62
2023-03-05T02:22:51.886Z,94.48
2023-03-05T02:25:24.124Z,94.71
2023-03-05T02:28:14.869Z,94.97
2023-03-05T02:30:42.863Z,94.95
2023-03-05T02:33:14.518Z,95.17
2023-03-05T02:35:43.760Z,94.75
2023-03-05T02:38:12.702Z,94.70
2023-03-05T02:40:40.349Z,95.31
2023-03-05T02:43:08.852Z,95.02
2023-03-05T02:45:38.366Z,94.94
2023-03-05T02:48:06.408Z,95.12
2023-03-05T02:50:35.602Z,95.27
2023-03-05T02:53:03.736Z,95.10
2023-03-05T02:55:31.358Z,95.11
2023-03-05T02:58:00.652Z,94.77
2023-03-05T03:00:29.500Z,95.19
2023-03-05T03:02:57.159Z,95.08
2023-03-05T03:05:25.024Z,94.73
2023-03-05T03:07:52.834Z,95.24
2023-03-05T03:10:20.486Z,94.69
2023-03-05T03:12:48.182Z,94.63
2023-03-05T03:15:18.641Z,94.71
2023-03-05T03:17:46.670Z,94.65
2023-03-05T03:20:17.995Z,94.96
2023-03-05T03:22:47.012Z,94.81
2023-03-05T03:25:18.641Z,95.47
2023-03-05T03:27:46.186Z,95.46
2023-03-05T03:30:14.793Z,95.67
2023-03-05T03:32:42.727Z,96.00
2023-03-05T03:35:12.339Z,95.71
2023-03-05T03:37:40.400Z,95.73
2023-03-05T03:40:09.447Z,95.32
2023-03-05T03:42:36.972Z,95.77
2023-03-05T03:45:05.003Z,95.59
2023-03-05T03:47:32.626Z,95.55
2023-03-05T03:50:00.115Z,95.98
2023-03-05T03:52:27.706Z,95.87
2023-03-05T03:55:01.300Z,96.04
2023-03-05T03:57:33.451Z,96.06
2023-03-05T04:00:01.175Z,95.88
2023-03-05T04:02:28.880Z,96.21
2023-03-05T04:04:56.337Z,96.57
2023-03-05T04:07:24.165Z,96.78
2023-03-05T04:09:51.895Z,96.66
2023-03-05T04:12:19.551Z,96.82
2023-03-05T04:14:49.338Z,96.41
2023-03-05T04:17:17.430Z,96.69
2023-03-05T04:19:44.998Z,96.71
2023-03-05T04:22:18.286Z,97.36
2023-03-05T04:24:46.142Z,97.15
2023-03-05T04:27:13.738Z,96.76
2023-03-05T04:29:41.238Z,96.92
2023-03-05T04:32:08.797Z,97.06
2023-03-05T04:34:38.381Z,97.10
2023-03-05T04:37:05.987Z,96.84
2023-03-05T04:39:33.610Z,97.03
2023-03-05T04:42:01.330Z,97.30
2023-03-05T04:44:29.015Z,97.07
2023-03-05T04:46:56.422Z,97.13
2023-03-05T04:49:24.081Z,96.90
2023-03-05T04:51:51.791Z,97.49
2023-03-05T04:54:19.222Z,97.30
2023-03-05T04:56:46.785Z,97.47
2023-03-05T04:59:14.313Z,97.74
2023-03-05T05:01:43.062Z,97.40
2023-03-05T05:04:10.600Z,97.47
2023-03-05T05:06:38.046Z,97.80
2023-03-05T05:09:05.650Z,97.58
2023-03-05T05:11:33.124Z,98.04
2023-03-05T05:14:00.610Z,97.86
2023-03-05T05:16:28.218Z,97.84
2023-03-05T05:18:55.751Z,97.60
2023-03-05T05:21:23.227Z,97.48
2023-03-05T05:23:50.969Z,98.04
2023-03-05T05:26:18.415Z,98.31
2023-03-05T05:28:46.072Z,98.06
2023-03-05T05:31:17.234Z,97.62
2023-03-05T05:33:46.676Z,97.98
2023-03-05T05:36:19.272Z,97.92
2023-03-05T05:38:47.061Z,97.66
2023-03-05T05:41:18.391Z,97.60
2023-03-05T05:43:46.841Z,97.57
2023-03-05T05:46:19.990Z,97.69
2023-03-05T05:48:48.334Z,97.98
2023-03-05T05:51:23.036Z,98.31
2023-03-05T05:53:50.834Z,98.11
2023-03-05T05:56:19.353Z,98.20
2023-03-05T05:58:48.704Z,98.07
2023-03-05T06:01:42.535Z,98.02
2023-03-05T06:04:10.014Z,97.86
2023-03-05T06:06:37.774Z,98.58
2023-03-05T06:09:05.481Z,98.10
2023-03-05T06:11:34.069Z,98.46
2023-03-05T06:14:03.648Z,98.03
2023-03-05T06:16:31.404Z,98.53
2023-03-05T06:19:00.110Z,97.83
2023-03-05T06:21:27.719Z,98.20
2023-03-05T06:23:55.263Z,98.21
2023-03-05T06:26:22.987Z,98.43
2023-03-05T06:28:51.577Z,98.35
2023-03-05T06:31:27.912Z,98.39
2023-03-05T06:34:02.924Z,98.32
2023-03-05T06:36:31.610Z,98.25
2023-03-05T06:38:59.853Z,98.83
2023-03-05T06:41:31.140Z,98.66
2023-03-05T06:44:02.410Z,98.58
2023-03-05T06:46:33.494Z,98.67
2023-03-05T06:49:03.963Z,99.16
2023-03-05T06:51:35.901Z,99.20
2023-03-05T06:54:11.297Z,99.29
2023-03-05T06:56:41.578Z,98.70
2023-03-05T06:59:11.826Z,99.32
2023-03-05T07:01:39.526Z,99.26
2023-03-05T07:04:07.223Z,99.10
2023-03-05T07:06:39.195Z,99.43
2023-03-05T07:09:10.334Z,99.65
2023-03-05T07:11:38.120Z,99.29
2023-03-05T07:14:05.675Z,100.00
2023-03-05T07:16:35.540Z,99.17
2023-03-05T07:19:07.527Z,99.51
2023-03-05T07:21:38.360Z,100.00
2023-03-05T07:24:08.630Z,99.26
2023-03-05T07:26:36.628Z,99.28
2023-03-05T07:29:04.625Z,99.90
2023-03-05T07:31:32.461Z,99.86
2023-03-05T07:34:03.407Z,99.42
2023-03-05T07:36:31.427Z,100.00
2023-03-05T07:38:58.996Z,99.57
2023-03-05T07:41:26.883Z,99.70
2023-03-05T07:43:55.454Z,99.68
2023-03-05T07:46:27.908Z,99.88
2023-03-05T07:48:55.966Z,99.79
2023-03-05T07:51:26.713Z,100.00
2023-03-05T07:53:57.482Z,99.87
2023-03-05T07:56:32.123Z,100.00
2023-03-05T07:59:02.407Z,100.00
2023-03-05T08:01:31.709Z,100.00
2023-03-05T08:03:59.728Z,100.00
2023-03-05T08:06:27.580Z,99.69
2023-03-05T08:08:55.551Z,99.83
2023-03-05T08:11:23.237Z,99.75
2023-03-05T08:13:51.200Z,99.67
2023-03-05T08:16:21.833Z,99.81
2023-03-05T08:18:49.544Z,99.72
2023-03-05T08:21:20.965Z,99.48
2023-03-05T08:23:49.533Z,99.24
2023-03-05T08:26:21.679Z,99.37
2023-03-05T08:28:49.654Z,99.07
2023-03-05T08:31:22.019Z,99.38
2023-03-05T08:33:53.445Z,98.73
2023-03-05T08:36:22.061Z,98.62
2023-03-05T08:38:50.645Z,98.54
2023-03-05T08:41:19.284Z,99.14
2023-03-05T08:43:46.876Z,98.73
2023-03-05T08:46:16.788Z,99.10
2023-03-05T08:48:44.634Z,98.91
2023-03-05T08:51:24.914Z,99.33
2023-03-05T08:53:56.308Z,99.03
2023-03-05T08:56:25.389Z,98.49
2023-03-05T08:58:53.092Z,99.01
2023-03-05T09:01:20.677Z,98.68
2023-03-05T09:03:48.166Z,98.80
2023-03-05T09:06:15.971Z,98.80
2023-03-05T09:08:43.745Z,98.97
2023-03-05T09:11:13.779Z,98.18
2023-03-05T09:13:41.570Z,98.08
2023-03-05T09:16:15.075Z,98.14
2023-03-05T09:18:43.707Z,97.72
2023-03-05T09:21:15.899Z,97.77
2023-03-05T09:23:44.989Z,97.83
2023-03-05T09:26:15.719Z,97.43
2023-03-05T09:28:43.249Z,97.06
2023-03-05T09:31:12.010Z,97.04
2023-03-05T09:33:40.306Z,96.26
2023-03-05T09:36:24.829Z,95.84
2023-03-05T09:38:54.450Z,95.83
2023-03-05T09:41:30.285Z,95.45
2023-03-05T09:44:28.249Z,95.33
2023-03-05T09:47:45.258Z,95.68
2023-03-05T09:50:31.769Z,95.71
2023-03-05T09:53:20.574Z,95.15
2023-03-05T09:56:00.105Z,95.43
2023-03-05T09:58:46.608Z,95.34
2023-03-05T10:01:22.547Z,95.34
2023-03-05T10:03:56.987Z,94.93
2023-03-05T10:06:32.649Z,94.95
2023-03-05T10:09:49.017Z,93.21
2023-03-05T10:12:34.303Z,93.68
2023-03-05T10:15:03.226Z,92.99
2023-03-05T10:18:04.952Z,93.17
2023-03-05T10:21:18.258Z,93.13
2023-03-05T10:23:54.909Z,93.00
2023-03-05T10:26:42.470Z,92.92
2023-03-05T10:29:43.488Z,92.95
2023-03-05T10:32:52.823Z,93.96
2023-03-05T10:36:13.124Z,94.48
2023-03-05T10:39:24.953Z,95.41
2023-03-05T10:42:15.671Z,95.46
2023-03-05T10:44:58.217Z,96.29
2023-03-05T10:47:43.925Z,96.31
2023-03-05T10:50:24.063Z,97.39
2023-03-05T10:53:10.240Z,98.07
2023-03-05T10:55:37.698Z,98.54
2023-03-05T10:58:13.853Z,98.46
2023-03-05T11:01:06.731Z,98.62
2023-03-05T11:04:06.204Z,98.83
2023-03-05T11:06:45.738Z,98.67
2023-03-05T11:09:29.149Z,99.06
2023-03-05T11:12:18.085Z,98.97
2023-03-05T11:15:10.314Z,98.91
2023-03-05T11:17:48.929Z,99.42
2023-03-05T11:20:37.292Z,99.68
2023-03-05T11:23:14.759Z,99.36
2023-03-05T11:26:03.486Z,98.57
2023-03-05T11:28:39.452Z,98.88
2023-03-05T11:31:23.584Z,98.85
2023-03-05T11:34:04.567Z,98.78
2023-03-05T11:36:37.354Z,98.37
2023-03-05T11:39:08.011Z,98.39
2023-03-05T11:41:46.526Z,97.71
2023-03-05T11:44:22.735Z,98.05
2023-03-05T11:47:02.540Z,98.30
2023-03-05T11:49:33.466Z,97.77
2023-03-05T11:52:40.985Z,97.61
2023-03-05T11:55:30.141Z,97.21
2023-03-05T11:58:31.186Z,96.29
2023-03-05T12:01:01.564Z,96.21
2023-03-05T12:03:36.369Z,95.52
2023-03-05T12:06:06.827Z,95.57
2023-03-05T12:08:41.006Z,95.65
2023-03-05T12:11:31.935Z,95.58
2023-03-05T12:14:15.289Z,95.07
2023-03-05T12:17:03.376Z,94.93
2023-03-05T12:20:19.519Z,94.83
2023-03-05T12:22:47.394Z,93.81
2023-03-05T12:25:30.891Z,93.51
2023-03-05T12:27:59.447Z,92.88
2023-03-05T12:30:35.846Z,91.89
2023-03-05T12:33:05.923Z,90.96
2023-03-05T12:35:39.801Z,91.00
2023-03-05T12:38:39.257Z,90.35
2023-03-05T12:41:37.124Z,90.29
2023-03-05T12:44:07.567Z,90.59
2023-03-05T12:46:38.638Z,90.85
2023-03-05T12:49:18.104Z,89.94
2023-03-05T12:51:48.744Z,89.25
2023-03-05T12:54:42.014Z,89.29
2023-03-05T12:57:21.034Z,89.02
2023-03-05T12:59:58.760Z,88.74
2023-03-05T13:02:44.248Z,88.44
2023-03-05T13:05:26.469Z,87.23
2023-03-05T13:08:31.579Z,86.74
2023-03-05T13:11:09.544Z,86.75
2023-03-05T13:13:43.785Z,86.44
2023-03-05T13:16:29.225Z,87.14
2023-03-05T13:19:02.609Z,86.03
2023-03-05T13:21:33.060Z,86.51
2023-03-05T13:24:03.277Z,85.17
2023-03-05T13:26:40.475Z,85.41
2023-03-05T13:29:17.881Z,84.61
2023-03-05T13:31:54.538Z,85.20
2023-03-05T13:34:37.646Z,84.84
2023-03-05T13:37:21.725Z,84.29
2023-03-05T13:39:56.742Z,84.72
2023-03-05T13:42:34.649Z,84.95
2023-03-05T13:45:20.367Z,84.40
2023-03-05T13:48:01.232Z,84.53
2023-03-05T13:50:31.841Z,84.15
2023-03-05T13:53:16.074Z,83.18
2023-03-05T13:55:43.991Z,83.46
2023-03-05T13:58:55.756Z,83.20
2023-03-05T14:01:42.523Z,83.06
2023-03-05T14:04:13.229Z,82.74
2023-03-05T14:06:56.650Z,82.73
2023-03-05T14:09:49.407Z,82.34
2023-03-05T14:12:42.543Z,81.53
2023-03-05T14:15:29.369Z,81.36
2023-03-05T14:18:12.087Z,81.56
2023-03-05T14:20:59.702Z,81.52
2023-03-05T14:23:36.172Z,81.08
2023-03-05T14:27:05.698Z,81.27
2023-03-05T14:29:34.894Z,81.30
2023-03-05T14:32:07.834Z,81.07
2023-03-05T14:34:39.963Z,80.77
2023-03-05T14:37:25.339Z,78.81
2023-03-05T14:40:05.549Z,78.64
2023-03-05T14:42:39.406Z,78.55
2023-03-05T14:45:16.803Z,79.01
2023-03-05T14:47:44.857Z,78.30
2023-03-05T14:50:37.222Z,77.50
2023-03-05T14:53:16.889Z,77.62
2023-03-05T14:55:50.284Z,78.60
2023-03-05T14:58:21.972Z,78.60
2023-03-05T15:00:51.128Z,78.82
2023-03-05T15:03:21.349Z,78.64
2023-03-05T15:05:54.081Z,77.62
2023-03-05T15:08:27.657Z,77.86
2023-03-05T15:10:59.132Z,78.18
2023-03-05T15:13:27.150Z,78.70
2023-03-05T15:15:55.671Z,78.36
2023-03-05T15:18:23.798Z,78.28
2023-03-05T15:20:53.002Z,77.78
2023-03-05T15:23:20.909Z,77.83
2023-03-05T15:25:48.685Z,77.48
2023-03-05T15:28:16.570Z,77.53
2023-03-05T15:30:47.014Z,77.58
2023-03-05T15:33:17.670Z,77.66
2023-03-05T15:35:45.485Z,77.60
2023-03-05T15:38:13.696Z,78.04
2023-03-05T15:40:41.469Z,77.83
2023-03-05T15:43:10.170Z,77.65
2023-03-05T15:45:37.664Z,77.74
2023-03-05T15:48:05.763Z,77.27
2023-03-05T15:50:33.994Z,77.02
2023-03-05T15:53:01.515Z,77.17
2023-03-05T15:55:29.276Z,77.73
2023-03-05T15:57:56.763Z,77.55
2023-03-05T16:00:30.252Z,77.95
2023-03-05T16:02:58.040Z,78.38
2023-03-05T16:05:26.013Z,78.51
2023-03-05T16:07:54.771Z,78.29
2023-03-05T16:10:26.664Z,78.30
2023-03-05T16:13:06.710Z,78.94
2023-03-05T16:15:35.521Z,78.77
2023-03-05T16:18:09.420Z,78.78
2023-03-05T16:20:37.711Z,79.41
2023-03-05T16:23:06.010Z,79.02
2023-03-05T16:25:33.804Z,79.37
2023-03-05T16:28:01.385Z,79.18
2023-03-05T16:30:29.592Z,79.68
2023-03-05T16:32:57.390Z,79.46
2023-03-05T16:35:25.839Z,79.36
2023-03-05T16:37:53.484Z,79.52
2023-03-05T16:40:21.154Z,79.50
2023-03-05T16:42:48.707Z,79.60
2023-03-05T16:45:16.197Z,80.23
2023-03-05T16:47:43.942Z,80.08
2023-03-05T16:50:12.463Z,80.12
2023-03-05T16:52:40.161Z,80.36
2023-03-05T16:55:08.132Z,80.72
2023-03-05T16:57:38.616Z,80.58
2023-03-05T17:00:10.737Z,80.73
2023-03-05T17:02:38.176Z,80.86
2023-03-05T17:05:06.144Z,80.88
2023-03-05T17:07:33.824Z,81.00
2023-03-05T17:10:01.409Z,81.30
2023-03-05T17:12:28.848Z,81.08
2023-03-05T17:14:56.518Z,80.95
2023-03-05T17:17:24.022Z,81.14
2023-03-05T17:19:51.502Z,81.71
2023-03-05T17:22:19.194Z,81.43
2023-03-05T17:24:48.072Z,81.64
2023-03-05T17:27:18.822Z,81.78
2023-03-05T17:29:46.512Z,81.76
2023-03-05T17:32:14.184Z,82.34
2023-03-05T17:34:43.335Z,82.13
2023-03-05T17:37:11.249Z,81.90
2023-03-05T17:39:39.461Z,82.12
2023-03-05T17:42:06.978Z,81.83
2023-03-05T17:44:34.453Z,81.72
2023-03-05T17:47:02.083Z,81.76
2023-03-05T17:49:29.652Z,82.73
2023-03-05T17:51:57.362Z,82.46
2023-03-05T17:54:24.830Z,82.62
2023-03-05T17:56:56.952Z,82.82
2023-03-05T17:59:25.869Z,82.79
2023-03-05T18:01:53.329Z,82.76
2023-03-05T18:04:21.107Z,83.13
2023-03-05T18:06:48.717Z,83.13
2023-03-05T18:09:16.310Z,83.58
2023-03-05T18:11:43.753Z,83.02
2023-03-05T18:14:11.468Z,83.74
2023-03-05T18:16:39.020Z,83.54
2023-03-05T18:19:08.120Z,83.81
2023-03-05T18:21:35.804Z,83.19
2023-03-05T18:24:03.317Z,84.06
2023-03-05T18:26:30.957Z,84.08
2023-03-05T18:28:58.539Z,84.39
2023-03-05T18:31:26.034Z,83.63
2023-03-05T18:33:53.722Z,84.29
2023-03-05T18:36:21.403Z,84.47
2023-03-05T18:38:48.891Z,84.66
2023-03-05T18:41:27.138Z,84.26
2023-03-05T18:43:55.460Z,84.91
2023-03-05T18:46:23.344Z,84.88
2023-03-05T18:48:50.911Z,84.99
2023-03-05T18:51:21.850Z,85.02
2023-03-05T18:53:51.143Z,84.71
2023-03-05T18:56:18.684Z,85.63
2023-03-05T18:58:47.584Z,85.78
2023-03-05T19:01:17.542Z,85.77
2023-03-05T19:03:46.438Z,85.99
2023-03-05T19:06:14.046Z,85.73
2023-03-05T19:08:41.635Z,85.85
2023-03-05T19:11:19.106Z,86.58
2023-03-05T19:13:50.148Z,85.94
2023-03-05T19:16:33.685Z,85.94
2023-03-05T19:19:25.877Z,86.25
2023-03-05T19:21:58.775Z,87.25
2023-03-05T19:24:30.039Z,87.22
2023-03-05T19:27:00.969Z,87.48
2023-03-05T19:29:33.056Z,88.29
2023-03-05T19:32:01.039Z,87.65
2023-03-05T19:34:28.610Z,88.18
2023-03-05T19:36:56.105Z,88.86
2023-03-05T19:39:23.832Z,88.96
2023-03-05T19:41:52.020Z,89.14
2023-03-05T19:44:19.886Z,88.62
2023-03-05T19:46:48.537Z,89.62
2023-03-05T19:49:18.290Z,89.85
2023-03-05T19:51:46.978Z,89.73
2023-03-05T19:54:17.366Z,90.31
2023-03-05T19:56:47.341Z,90.08
2023-03-05T19:59:21.057Z,89.97
2023-03-05T20:01:49.089Z,90.35
2023-03-05T20:04:21.034Z,90.22
2023-03-05T20:06:48.969Z,91.00
2023-03-05T20:09:17.874Z,91.00
2023-03-05T20:11:47.129Z,91.21
2023-03-05T20:14:15.747Z,91.18
2023-03-05T20:16:44.163Z,92.00
2023-03-05T20:19:17.590Z,92.51
2023-03-05T20:21:45.783Z,92.26
2023-03-05T20:24:20.050Z,92.59
2023-03-05T20:26:49.294Z,92.59
2023-03-05T20:29:18.745Z,92.81
2023-03-05T20:31:47.462Z,93.41
2023-03-05T20:34:18.681Z,93.12
2023-03-05T20:36:47.133Z,93.64
2023-03-05T20:39:15.699Z,93.50
2023-03-05T20:41:43.220Z,94.26
2023-03-05T20:44:11.442Z,94.41
2023-03-05T20:46:49.553Z,94.76
2023-03-05T20:49:17.332Z,94.83
2023-03-05T20:51:50.009Z,95.20
2023-03-05T20:54:18.797Z,94.59
2023-03-05T20:56:46.296Z,94.73
2023-03-05T20:59:14.170Z,94.78
2023-03-05T21:01:41.672Z,94.90
2023-03-05T21:04:09.396Z,95.13
2023-03-05T21:06:37.156Z,95.25
2023-03-05T21:09:04.810Z,95.32
2023-03-05T21:11:32.507Z,95.95
2023-03-05T21:14:00.036Z,95.40
2023-03-05T21:16:28.230Z,95.39
2023-03-05T21:18:57.215Z,96.27
2023-03-05T21:21:25.720Z,96.46
2023-03-05T21:23:53.626Z,96.34
2023-03-05T21:26:21.633Z,95.74
2023-03-05T21:28:49.339Z,96.34
2023-03-05T21:31:20.738Z,96.16
2023-03-05T21:33:49.018Z,96.98
2023-03-05T21:36:19.970Z,96.49
2023-03-05T21:38:49.042Z,96.37
2023-03-05T21:41:18.194Z,96.69
2023-03-05T21:43:46.370Z,96.78
2023-03-05T21:46:14.457Z,97.21
2023-03-05T21:48:42.125Z,96.98
2023-03-05T21:51:11.484Z,96.96
2023-03-05T21:53:39.222Z,97.52
2023-03-05T21:56:17.456Z,97.66
2023-03-05T21:58:47.526Z,97.36
2023-03-05T22:01:19.354Z,97.74
2023-03-05T22:03:49.269Z,97.64
2023-03-05T22:06:19.459Z,97.94
2023-03-05T22:08:48.325Z,98.07
2023-03-05T22:11:18.922Z,97.77
2023-03-05T22:13:46.720Z,97.61
2023-03-05T22:16:26.150Z,98.28
2023-03-05T22:18:53.845Z,98.22
2023-03-05T22:21:27.297Z,98.40
2023-03-05T22:23:57.230Z,97.88
2023-03-05T22:26:32.695Z,98.08
2023-03-05T22:29:00.266Z,98.17
2023-03-05T22:31:28.515Z,98.83
2023-03-05T22:33:56.576Z,98.65
2023-03-05T22:36:24.539Z,98.26
2023-03-05T22:38:52.485Z,98.07
2023-03-05T22:41:21.534Z,98.47
2023-03-05T22:43:50.397Z,98.70
2023-03-05T22:46:24.043Z,98.79
2023-03-05T22:48:52.861Z,98.97
2023-03-05T22:51:20.749Z,98.55
2023-03-05T22:53:48.410Z,98.41
2023-03-05T22:56:20.200Z,99.10
2023-03-05T22:58:48.006Z,98.76
2023-03-05T23:01:19.882Z,99.25
2023-03-05T23:03:53.088Z,99.00
2023-03-05T23:06:21.137Z,99.30
2023-03-05T23:08:48.873Z,99.28
2023-03-05T23:11:16.298Z,99.54
2023-03-05T23:13:43.719Z,99.66
2023-03-05T23:16:11.486Z,99.38
2023-03-05T23:18:38.991Z,99.68
2023-03-05T23:21:06.777Z,99.93
2023-03-05T23:23:34.563Z,100.00
2023-03-05T23:26:02.013Z,100.00
2023-03-05T23:28:29.709Z,99.84
2023-03-05T23:30:57.955Z,100.00
2023-03-05T23:33:25.602Z,99.54
2023-03-05T23:35:58.220Z,99.98
2023-03-05T23:38:28.859Z,100.00
2023-03-05T23:41:01.083Z,99.91
2023-03-05T23:43:30.296Z,100.00
2023-03-05T23:45:58.119Z,100.00
2023-03-05T23:48:26.839Z,100.00
2023-03-05T23:50:55.502Z,99.99
2023-03-05T23:53:27.740Z,100.00
2023-03-05T23:55:56.326Z,100.00
2023-03-05T23:58:24.584Z,100.00
